Aviation Digital Data Service (ADDS)

Output produced by METARs form (1855 UTC 22 May 2019)
found at http://aviationweather.gov/metar/data/
 
METAR text: EYKA 221850Z 20004KT CAVOK 19/10 Q1008
Conditions at: EYKA (KAUNAS , LT) observed 1850 UTC 22 May 2019
Temperature: 19.0°C (66°F)
Dewpoint: 10.0°C (50°F) [RH = 56%]
Pressure (altimeter): 29.76 inches Hg (1008.0 mb)
Winds: from the SSW (200 degrees) at 5 MPH (4 knots; 2.1 m/s)
Visibility: 6 or more miles (10+ km)
Ceiling: ceiling and visibility are OK
Clouds: unknown
Weather: no significant weather observed at this time

METAR text: EYKA 221820Z 20004KT 130V220 CAVOK 21/10 Q1007
Conditions at: EYKA (KAUNAS , LT) observed 1820 UTC 22 May 2019
Temperature: 21.0°C (70°F)
Dewpoint: 10.0°C (50°F) [RH = 49%]
Pressure (altimeter): 29.73 inches Hg (1007.0 mb)
Winds: from the SSW (200 degrees) at 5 MPH (4 knots; 2.1 m/s)
Visibility: 6 or more miles (10+ km)
Ceiling: ceiling and visibility are OK
Clouds: unknown
Weather: no significant weather observed at this time

METAR text: EYKA 221750Z 19005KT CAVOK 22/10 Q1007
Conditions at: EYKA (KAUNAS , LT) observed 1750 UTC 22 May 2019
Temperature: 22.0°C (72°F)
Dewpoint: 10.0°C (50°F) [RH = 46%]
Pressure (altimeter): 29.73 inches Hg (1007.0 mb)
Winds: from the S (190 degrees) at 6 MPH (5 knots; 2.6 m/s)
Visibility: 6 or more miles (10+ km)
Ceiling: ceiling and visibility are OK
Clouds: unknown
Weather: no significant weather observed at this time

METAR text: EYKA 221720Z 17003KT CAVOK 23/10 Q1007
Conditions at: EYKA (KAUNAS , LT) observed 1720 UTC 22 May 2019
Temperature: 23.0°C (73°F)
Dewpoint: 10.0°C (50°F) [RH = 44%]
Pressure (altimeter): 29.73 inches Hg (1007.0 mb)
Winds: from the S (170 degrees) at 3 MPH (3 knots; 1.5 m/s)
Visibility: 6 or more miles (10+ km)
Ceiling: ceiling and visibility are OK
Clouds: unknown
Weather: no significant weather observed at this time

Forecast for: EYKA (KAUNAS , LT)
Text: TAF EYKA 221703Z 2218/2318 VRB05KT 9000 NSC
Forecast period: 1800 UTC 22 May 2019 to 0800 UTC 23 May 2019
Forecast type: FROM: standard forecast or significant change
Winds: variable direction winds at 6 MPH (5 knots; 2.6 m/s)
Visibility: 6 miles (9 km)
Ceiling: unknown
Clouds: missing
Weather: no significant weather forecast for this period
Text: BECMG 2308/2309 SCT045CB
Forecast period: 0800 to 1800 UTC 23 May 2019
Forecast type: BECOMING: Conditions expected to become as follows by 0900 UTC 23 May 2019
Winds: variable direction winds at 6 MPH (5 knots; 2.6 m/s)
Visibility: 6 miles (9 km)
Ceiling: at least 12,000 feet AGL
Clouds: scattered clouds at 4500 feet AGL
Weather: no significant weather forecast for this period
Text: TEMPO 2311/2318 VRB25KT 3000 TSRA BKN030CB
Forecast period: 1100 to 1800 UTC 23 May 2019
Forecast type: TEMPORARY: The following changes expected for less than half the time period
Winds: variable direction winds at 29 MPH (25 knots; 12.9 m/s)
Visibility: 1.86 miles (2.99 km)
Ceiling: 3000 feet AGL
Clouds: broken clouds at 3000 feet AGL
Weather: TSRA  (rain associated with thunderstorm(s))